sensor_id;sensor_type;location;lat;lon;timestamp;pressure;altitude;pressure_sealevel;temperature;humidity
42705;BME280;28342;42.594;23.414;2022-08-01T00:01:12;94462.13;;;17.36;76.25
42705;BME280;28342;42.594;23.414;2022-08-01T00:03:38;94457.53;;;17.37;75.13
42705;BME280;28342;42.594;23.414;2022-08-01T00:06:04;94450.75;;;17.43;74.34
42705;BME280;28342;42.594;23.414;2022-08-01T00:08:29;94444.75;;;17.30;73.96
42705;BME280;28342;42.594;23.414;2022-08-01T00:10:55;94459.50;;;17.20;76.11
42705;BME280;28342;42.594;23.414;2022-08-01T00:13:21;94452.41;;;17.12;76.48
42705;BME280;28342;42.594;23.414;2022-08-01T00:15:51;94462.09;;;17.17;77.20
42705;BME280;28342;42.594;23.414;2022-08-01T00:18:21;94452.66;;;17.23;75.83
42705;BME280;28342;42.594;23.414;2022-08-01T00:20:46;94444.81;;;16.98;76.23
42705;BME280;28342;42.594;23.414;2022-08-01T00:23:12;94450.00;;;17.07;76.28
42705;BME280;28342;42.594;23.414;2022-08-01T00:25:37;94443.53;;;17.08;75.22
42705;BME280;28342;42.594;23.414;2022-08-01T00:28:03;94431.19;;;16.88;70.66
42705;BME280;28342;42.594;23.414;2022-08-01T00:30:28;94455.44;;;17.11;70.23
42705;BME280;28342;42.594;23.414;2022-08-01T00:32:54;94448.69;;;17.17;69.26
42705;BME280;28342;42.594;23.414;2022-08-01T00:35:20;94453.28;;;17.16;74.51
42705;BME280;28342;42.594;23.414;2022-08-01T00:37:48;94452.97;;;17.02;75.20
42705;BME280;28342;42.594;23.414;2022-08-01T00:40:13;94455.03;;;16.93;75.73
42705;BME280;28342;42.594;23.414;2022-08-01T00:42:39;94435.69;;;16.84;74.65
42705;BME280;28342;42.594;23.414;2022-08-01T00:45:07;94427.13;;;16.78;74.18
42705;BME280;28342;42.594;23.414;2022-08-01T00:47:33;94434.75;;;16.76;74.45
42705;BME280;28342;42.594;23.414;2022-08-01T00:49:59;94449.53;;;16.86;75.59
42705;BME280;28342;42.594;23.414;2022-08-01T00:52:25;94461.53;;;16.76;76.20
42705;BME280;28342;42.594;23.414;2022-08-01T00:54:51;94453.22;;;16.81;75.38
42705;BME280;28342;42.594;23.414;2022-08-01T00:57:18;94436.38;;;16.81;74.95
42705;BME280;28342;42.594;23.414;2022-08-01T00:59:46;94463.56;;;16.98;75.50
42705;BME280;28342;42.594;23.414;2022-08-01T01:02:12;94439.41;;;16.79;74.88
42705;BME280;28342;42.594;23.414;2022-08-01T01:04:38;94436.00;;;16.66;74.00
42705;BME280;28342;42.594;23.414;2022-08-01T01:07:11;94431.78;;;16.81;73.69
42705;BME280;28342;42.594;23.414;2022-08-01T01:10:02;94455.06;;;16.77;75.00
42705;BME280;28342;42.594;23.414;2022-08-01T01:12:36;94453.22;;;16.81;73.36
42705;BME280;28342;42.594;23.414;2022-08-01T01:15:13;94446.25;;;16.77;74.38
42705;BME280;28342;42.594;23.414;2022-08-01T01:17:46;94431.47;;;16.67;74.55
42705;BME280;28342;42.594;23.414;2022-08-01T01:20:18;94445.63;;;16.67;76.10
42705;BME280;28342;42.594;23.414;2022-08-01T01:28:17;94430.16;;;16.61;76.37
42705;BME280;28342;42.594;23.414;2022-08-01T01:30:50;94445.09;;;16.62;77.00
42705;BME280;28342;42.594;23.414;2022-08-01T01:33:19;94418.94;;;16.39;76.71
42705;BME280;28342;42.594;23.414;2022-08-01T01:35:52;94412.97;;;16.30;76.59
42705;BME280;28342;42.594;23.414;2022-08-01T01:38:28;94426.84;;;16.20;77.69
42705;BME280;28342;42.594;23.414;2022-08-01T01:40:55;94431.63;;;16.42;76.34
42705;BME280;28342;42.594;23.414;2022-08-01T01:43:24;94421.44;;;16.32;75.69
42705;BME280;28342;42.594;23.414;2022-08-01T01:45:52;94423.47;;;16.23;76.00
42705;BME280;28342;42.594;23.414;2022-08-01T01:48:20;94418.66;;;16.13;76.31
42705;BME280;28342;42.594;23.414;2022-08-01T01:50:47;94425.06;;;16.24;74.19
42705;BME280;28342;42.594;23.414;2022-08-01T01:53:15;94432.38;;;16.11;74.95
42705;BME280;28342;42.594;23.414;2022-08-01T01:55:45;94398.44;;;16.00;72.57
42705;BME280;28342;42.594;23.414;2022-08-01T01:58:13;94423.22;;;16.12;71.90
42705;BME280;28342;42.594;23.414;2022-08-01T02:00:43;94430.47;;;16.12;74.29
42705;BME280;28342;42.594;23.414;2022-08-01T02:03:11;94415.34;;;16.04;73.75
42705;BME280;28342;42.594;23.414;2022-08-01T02:05:40;94397.75;;;16.03;73.16
42705;BME280;28342;42.594;23.414;2022-08-01T02:08:09;94413.84;;;15.91;70.75
42705;BME280;28342;42.594;23.414;2022-08-01T02:10:37;94407.94;;;15.69;71.02
42705;BME280;28342;42.594;23.414;2022-08-01T02:13:05;94432.78;;;15.70;70.71
42705;BME280;28342;42.594;23.414;2022-08-01T02:15:32;94430.66;;;15.75;71.02
42705;BME280;28342;42.594;23.414;2022-08-01T02:17:59;94416.28;;;15.80;70.88
42705;BME280;28342;42.594;23.414;2022-08-01T02:20:29;94419.28;;;15.78;70.40
42705;BME280;28342;42.594;23.414;2022-08-01T02:23:11;94404.41;;;15.65;70.28
42705;BME280;28342;42.594;23.414;2022-08-01T02:25:48;94421.00;;;15.87;69.47
42705;BME280;28342;42.594;23.414;2022-08-01T02:28:20;94413.91;;;15.63;69.33
42705;BME280;28342;42.594;23.414;2022-08-01T02:30:50;94399.94;;;15.69;69.17
42705;BME280;28342;42.594;23.414;2022-08-01T02:33:18;94390.44;;;15.72;69.34
42705;BME280;28342;42.594;23.414;2022-08-01T02:35:49;94397.88;;;15.78;69.00
42705;BME280;28342;42.594;23.414;2022-08-01T02:38:16;94406.94;;;15.90;70.28
42705;BME280;28342;42.594;23.414;2022-08-01T02:40:45;94402.34;;;15.74;72.78
42705;BME280;28342;42.594;23.414;2022-08-01T02:43:15;94413.94;;;15.78;73.25
42705;BME280;28342;42.594;23.414;2022-08-01T02:45:46;94394.59;;;15.69;72.40
42705;BME280;28342;42.594;23.414;2022-08-01T02:48:14;94413.94;;;15.78;72.93
42705;BME280;28342;42.594;23.414;2022-08-01T02:50:42;94386.22;;;15.59;71.80
42705;BME280;28342;42.594;23.414;2022-08-01T02:53:11;94403.94;;;15.91;70.00
42705;BME280;28342;42.594;23.414;2022-08-01T02:55:38;94392.16;;;15.64;72.99
42705;BME280;28342;42.594;23.414;2022-08-01T02:58:08;94391.47;;;15.67;71.34
42705;BME280;28342;42.594;23.414;2022-08-01T03:00:35;94388.38;;;15.65;72.89
42705;BME280;28342;42.594;23.414;2022-08-01T03:03:03;94404.41;;;15.65;74.05
42705;BME280;28342;42.594;23.414;2022-08-01T03:05:30;94380.88;;;15.59;71.42
42705;BME280;28342;42.594;23.414;2022-08-01T03:07:58;94396.81;;;15.67;70.67
42705;BME280;28342;42.594;23.414;2022-08-01T03:10:28;94386.00;;;15.36;73.42
42705;BME280;28342;42.594;23.414;2022-08-01T03:12:55;94387.69;;;15.56;71.05
42705;BME280;28342;42.594;23.414;2022-08-01T03:15:26;94380.38;;;15.53;71.25
42705;BME280;28342;42.594;23.414;2022-08-01T03:17:52;94372.13;;;15.46;70.36
42705;BME280;28342;42.594;23.414;2022-08-01T03:20:21;94388.09;;;15.70;68.79
42705;BME280;28342;42.594;23.414;2022-08-01T03:22:50;94387.47;;;15.61;68.82
42705;BME280;28342;42.594;23.414;2022-08-01T03:25:18;94390.38;;;15.56;70.99
42705;BME280;28342;42.594;23.414;2022-08-01T03:27:48;94393.72;;;15.65;70.03
42705;BME280;28342;42.594;23.414;2022-08-01T03:30:15;94388.63;;;15.48;70.32
42705;BME280;28342;42.594;23.414;2022-08-01T03:32:42;94405.97;;;15.54;69.87
42705;BME280;28342;42.594;23.414;2022-08-01T03:35:08;94413.13;;;15.50;69.84
42705;BME280;28342;42.594;23.414;2022-08-01T03:37:38;94407.56;;;15.43;71.92
42705;BME280;28342;42.594;23.414;2022-08-01T03:40:10;94406.72;;;15.27;72.94
42705;BME280;28342;42.594;23.414;2022-08-01T03:42:45;94390.53;;;15.07;70.07
42705;BME280;28342;42.594;23.414;2022-08-01T03:45:23;94426.44;;;15.34;71.35
42705;BME280;28342;42.594;23.414;2022-08-01T03:47:55;94417.84;;;15.29;72.14
42705;BME280;28342;42.594;23.414;2022-08-01T03:50:24;94396.28;;;15.21;69.77
42705;BME280;28342;42.594;23.414;2022-08-01T03:52:50;94400.94;;;15.24;70.56
42705;BME280;28342;42.594;23.414;2022-08-01T03:55:17;94393.38;;;15.27;71.84
42705;BME280;28342;42.594;23.414;2022-08-01T03:57:45;94418.25;;;15.43;71.48
42705;BME280;28342;42.594;23.414;2022-08-01T04:00:13;94394.81;;;15.24;72.39
42705;BME280;28342;42.594;23.414;2022-08-01T04:02:45;94405.84;;;15.35;70.11
42705;BME280;28342;42.594;23.414;2022-08-01T04:05:11;94421.44;;;15.33;69.48
42705;BME280;28342;42.594;23.414;2022-08-01T04:07:37;94405.78;;;15.07;69.63
42705;BME280;28342;42.594;23.414;2022-08-01T04:10:08;94401.91;;;15.04;70.42
42705;BME280;28342;42.594;23.414;2022-08-01T04:12:34;94399.41;;;15.11;69.84
42705;BME280;28342;42.594;23.414;2022-08-01T04:14:59;94419.13;;;15.19;69.58
42705;BME280;28342;42.594;23.414;2022-08-01T04:17:25;94389.94;;;15.14;71.07
42705;BME280;28342;42.594;23.414;2022-08-01T04:19:50;94409.09;;;15.16;72.76
42705;BME280;28342;42.594;23.414;2022-08-01T04:22:16;94426.56;;;15.13;70.64
42705;BME280;28342;42.594;23.414;2022-08-01T04:24:44;94399.84;;;15.13;70.40
42705;BME280;28342;42.594;23.414;2022-08-01T04:27:20;94399.31;;;15.08;70.43
42705;BME280;28342;42.594;23.414;2022-08-01T04:29:49;94393.41;;;15.14;69.59
42705;BME280;28342;42.594;23.414;2022-08-01T04:32:16;94417.69;;;15.49;71.90
42705;BME280;28342;42.594;23.414;2022-08-01T04:34:44;94409.34;;;15.51;69.79
42705;BME280;28342;42.594;23.414;2022-08-01T04:37:12;94398.06;;;15.58;69.76
42705;BME280;28342;42.594;23.414;2022-08-01T04:39:39;94420.84;;;15.79;71.80
42705;BME280;28342;42.594;23.414;2022-08-01T04:42:07;94406.34;;;15.80;68.73
42705;BME280;28342;42.594;23.414;2022-08-01T04:44:32;94401.16;;;15.88;71.65
42705;BME280;28342;42.594;23.414;2022-08-01T04:46:59;94387.88;;;15.91;72.11
42705;BME280;28342;42.594;23.414;2022-08-01T04:49:31;94379.44;;;16.05;71.21
42705;BME280;28342;42.594;23.414;2022-08-01T04:51:58;94393.59;;;16.21;69.07
42705;BME280;28342;42.594;23.414;2022-08-01T04:54:29;94392.41;;;16.34;70.32
42705;BME280;28342;42.594;23.414;2022-08-01T04:56:55;94416.00;;;16.60;70.66
42705;BME280;28342;42.594;23.414;2022-08-01T04:59:27;94388.25;;;16.53;68.20
42705;BME280;28342;42.594;23.414;2022-08-01T05:02:08;94393.69;;;16.88;67.41
42705;BME280;28342;42.594;23.414;2022-08-01T05:04:34;94376.91;;;16.91;71.35
42705;BME280;28342;42.594;23.414;2022-08-01T05:07:02;94380.97;;;17.00;68.50
42705;BME280;28342;42.594;23.414;2022-08-01T05:09:27;94395.41;;;17.15;71.40
42705;BME280;28342;42.594;23.414;2022-08-01T05:11:53;94395.94;;;17.21;70.15
42705;BME280;28342;42.594;23.414;2022-08-01T05:14:26;94398.06;;;17.31;69.13
42705;BME280;28342;42.594;23.414;2022-08-01T05:16:52;94394.09;;;17.44;71.29
42705;BME280;28342;42.594;23.414;2022-08-01T05:19:17;94386.41;;;17.43;70.31
42705;BME280;28342;42.594;23.414;2022-08-01T05:21:43;94378.16;;;17.51;70.49
42705;BME280;28342;42.594;23.414;2022-08-01T05:24:08;94384.78;;;17.57;70.04
42705;BME280;28342;42.594;23.414;2022-08-01T05:26:36;94380.28;;;17.61;70.35
42705;BME280;28342;42.594;23.414;2022-08-01T05:29:02;94394.84;;;17.80;70.00
42705;BME280;28342;42.594;23.414;2022-08-01T05:31:28;94390.53;;;17.95;69.29
42705;BME280;28342;42.594;23.414;2022-08-01T05:33:53;94389.75;;;17.94;70.03
42705;BME280;28342;42.594;23.414;2022-08-01T05:36:19;94373.63;;;17.94;68.06
42705;BME280;28342;42.594;23.414;2022-08-01T05:38:44;94379.94;;;18.05;69.13
42705;BME280;28342;42.594;23.414;2022-08-01T05:41:10;94362.72;;;18.06;69.19
42705;BME280;28342;42.594;23.414;2022-08-01T05:43:36;94380.66;;;18.02;70.06
42705;BME280;28342;42.594;23.414;2022-08-01T05:46:01;94390.94;;;18.19;70.03
42705;BME280;28342;42.594;23.414;2022-08-01T05:48:26;94386.28;;;18.16;70.27
42705;BME280;28342;42.594;23.414;2022-08-01T05:50:53;94393.34;;;18.25;67.15
42705;BME280;28342;42.594;23.414;2022-08-01T05:53:19;94402.53;;;18.46;66.35
42705;BME280;28342;42.594;23.414;2022-08-01T05:55:44;94388.09;;;18.32;62.13
42705;BME280;28342;42.594;23.414;2022-08-01T05:58:09;94409.63;;;18.58;59.44
42705;BME280;28342;42.594;23.414;2022-08-01T06:00:35;94397.16;;;18.69;60.31
42705;BME280;28342;42.594;23.414;2022-08-01T06:03:00;94396.41;;;18.69;63.77
42705;BME280;28342;42.594;23.414;2022-08-01T06:05:26;94399.59;;;18.78;63.10
42705;BME280;28342;42.594;23.414;2022-08-01T06:07:51;94411.66;;;18.88;61.98
42705;BME280;28342;42.594;23.414;2022-08-01T06:10:17;94405.94;;;18.93;60.89
42705;BME280;28342;42.594;23.414;2022-08-01T06:12:42;94413.03;;;19.04;59.52
42705;BME280;28342;42.594;23.414;2022-08-01T06:15:08;94401.72;;;19.18;60.06
42705;BME280;28342;42.594;23.414;2022-08-01T06:17:33;94399.44;;;19.20;60.03
42705;BME280;28342;42.594;23.414;2022-08-01T06:19:59;94410.69;;;19.29;58.38
42705;BME280;28342;42.594;23.414;2022-08-01T06:22:25;94411.28;;;19.46;58.96
42705;BME280;28342;42.594;23.414;2022-08-01T06:24:50;94414.53;;;19.58;58.96
42705;BME280;28342;42.594;23.414;2022-08-01T06:27:19;94404.53;;;19.59;56.90
42705;BME280;28342;42.594;23.414;2022-08-01T06:29:52;94404.00;;;19.76;56.05
42705;BME280;28342;42.594;23.414;2022-08-01T06:32:21;94414.97;;;19.94;54.70
42705;BME280;28342;42.594;23.414;2022-08-01T06:34:51;94387.28;;;19.93;54.12
42705;BME280;28342;42.594;23.414;2022-08-01T06:37:16;94399.88;;;20.23;52.55
42705;BME280;28342;42.594;23.414;2022-08-01T06:39:42;94404.59;;;20.37;53.77
42705;BME280;28342;42.594;23.414;2022-08-01T06:42:08;94403.94;;;20.43;52.60
42705;BME280;28342;42.594;23.414;2022-08-01T06:44:35;94395.53;;;20.52;52.50
42705;BME280;28342;42.594;23.414;2022-08-01T06:47:00;94382.41;;;20.50;50.31
42705;BME280;28342;42.594;23.414;2022-08-01T06:49:26;94399.09;;;20.67;49.36
42705;BME280;28342;42.594;23.414;2022-08-01T06:51:51;94383.03;;;20.77;49.14
42705;BME280;28342;42.594;23.414;2022-08-01T06:54:17;94392.75;;;20.89;51.68
42705;BME280;28342;42.594;23.414;2022-08-01T06:56:43;94371.19;;;20.96;50.63
42705;BME280;28342;42.594;23.414;2022-08-01T06:59:08;94385.66;;;21.25;49.16
42705;BME280;28342;42.594;23.414;2022-08-01T07:01:35;94380.31;;;21.36;48.91
42705;BME280;28342;42.594;23.414;2022-08-01T07:04:03;94364.59;;;21.56;48.07
42705;BME280;28342;42.594;23.414;2022-08-01T07:06:29;94363.50;;;21.74;48.90
42705;BME280;28342;42.594;23.414;2022-08-01T07:08:55;94379.41;;;22.01;47.25
42705;BME280;28342;42.594;23.414;2022-08-01T07:11:22;94350.13;;;22.10;46.50
42705;BME280;28342;42.594;23.414;2022-08-01T07:13:47;94368.66;;;22.33;45.60
42705;BME280;28342;42.594;23.414;2022-08-01T07:16:14;94390.69;;;22.60;46.14
42705;BME280;28342;42.594;23.414;2022-08-01T07:18:40;94395.31;;;22.81;46.93
42705;BME280;28342;42.594;23.414;2022-08-01T07:21:24;94385.69;;;22.98;45.69
42705;BME280;28342;42.594;23.414;2022-08-01T07:23:51;94364.78;;;23.16;45.44
42705;BME280;28342;42.594;23.414;2022-08-01T07:26:20;94370.94;;;23.31;45.48
42705;BME280;28342;42.594;23.414;2022-08-01T07:28:51;94353.91;;;23.37;44.74
42705;BME280;28342;42.594;23.414;2022-08-01T07:31:18;94363.94;;;23.47;43.77
42705;BME280;28342;42.594;23.414;2022-08-01T07:33:44;94388.97;;;23.73;46.43
42705;BME280;28342;42.594;23.414;2022-08-01T07:36:09;94374.63;;;23.83;44.95
42705;BME280;28342;42.594;23.414;2022-08-01T07:38:35;94378.72;;;24.12;42.90
42705;BME280;28342;42.594;23.414;2022-08-01T07:41:00;94380.72;;;24.01;42.65
42705;BME280;28342;42.594;23.414;2022-08-01T07:43:48;94383.94;;;23.78;44.15
42705;BME280;28342;42.594;23.414;2022-08-01T07:46:15;94346.81;;;23.72;43.65
42705;BME280;28342;42.594;23.414;2022-08-01T07:49:09;94375.53;;;24.32;44.01
42705;BME280;28342;42.594;23.414;2022-08-01T07:52:35;94362.38;;;24.79;42.45
42705;BME280;28342;42.594;23.414;2022-08-01T07:55:03;94369.19;;;25.01;43.65
42705;BME280;28342;42.594;23.414;2022-08-01T08:01:05;94375.13;;;25.26;40.93
42705;BME280;28342;42.594;23.414;2022-08-01T08:03:48;94389.81;;;25.32;40.90
42705;BME280;28342;42.594;23.414;2022-08-01T08:06:49;94383.44;;;25.50;41.43
42705;BME280;28342;42.594;23.414;2022-08-01T08:09:33;94356.44;;;25.36;38.52
42705;BME280;28342;42.594;23.414;2022-08-01T08:12:05;94362.78;;;25.56;40.74
42705;BME280;28342;42.594;23.414;2022-08-01T08:14:32;94356.84;;;25.68;39.76
42705;BME280;28342;42.594;23.414;2022-08-01T08:16:58;94364.19;;;26.02;39.46
42705;BME280;28342;42.594;23.414;2022-08-01T08:19:26;94377.56;;;26.16;40.43
42705;BME280;28342;42.594;23.414;2022-08-01T08:22:15;94380.94;;;26.27;40.30
42705;BME280;28342;42.594;23.414;2022-08-01T08:24:42;94386.25;;;26.34;38.95
42705;BME280;28342;42.594;23.414;2022-08-01T08:27:07;94370.88;;;26.24;39.32
42705;BME280;28342;42.594;23.414;2022-08-01T08:29:36;94361.84;;;26.31;38.67
42705;BME280;28342;42.594;23.414;2022-08-01T08:32:05;94385.69;;;26.73;39.74
42705;BME280;28342;42.594;23.414;2022-08-01T08:34:34;94384.94;;;26.73;38.91
42705;BME280;28342;42.594;23.414;2022-08-01T08:37:04;94382.66;;;26.14;38.58
42705;BME280;28342;42.594;23.414;2022-08-01T08:39:29;94386.22;;;25.80;38.26
42705;BME280;28342;42.594;23.414;2022-08-01T08:42:09;94392.16;;;25.68;39.55
42705;BME280;28342;42.594;23.414;2022-08-01T08:44:43;94390.16;;;25.72;40.63
42705;BME280;28342;42.594;23.414;2022-08-01T08:47:28;94354.94;;;25.65;39.84
42705;BME280;28342;42.594;23.414;2022-08-01T08:50:02;94360.22;;;25.79;39.79
42705;BME280;28342;42.594;23.414;2022-08-01T08:52:38;94387.44;;;26.06;38.78
42705;BME280;28342;42.594;23.414;2022-08-01T08:55:11;94375.69;;;26.13;39.35
42705;BME280;28342;42.594;23.414;2022-08-01T08:57:58;94392.63;;;26.24;40.42
42705;BME280;28342;42.594;23.414;2022-08-01T09:00:24;94373.50;;;26.01;38.78
42705;BME280;28342;42.594;23.414;2022-08-01T09:03:12;94352.75;;;26.14;39.17
42705;BME280;28342;42.594;23.414;2022-08-01T09:05:39;94375.38;;;26.34;37.82
42705;BME280;28342;42.594;23.414;2022-08-01T09:08:14;94350.91;;;26.34;36.48
42705;BME280;28342;42.594;23.414;2022-08-01T09:11:18;94353.63;;;26.34;37.27
42705;BME280;28342;42.594;23.414;2022-08-01T09:14:22;94359.69;;;26.45;37.11
42705;BME280;28342;42.594;23.414;2022-08-01T09:17:07;94370.44;;;26.56;37.87
42705;BME280;28342;42.594;23.414;2022-08-01T09:19:54;94372.28;;;26.86;37.45
42705;BME280;28342;42.594;23.414;2022-08-01T09:22:33;94340.09;;;26.81;37.07
42705;BME280;28342;42.594;23.414;2022-08-01T09:25:07;94355.00;;;26.73;36.47
42705;BME280;28342;42.594;23.414;2022-08-01T09:27:37;94348.00;;;26.48;36.39
42705;BME280;28342;42.594;23.414;2022-08-01T09:30:22;94333.34;;;26.42;36.20
42705;BME280;28342;42.594;23.414;2022-08-01T09:33:17;94339.84;;;26.48;36.24
42705;BME280;28342;42.594;23.414;2022-08-01T09:35:54;94350.84;;;26.65;38.59
42705;BME280;28342;42.594;23.414;2022-08-01T09:38:25;94359.94;;;26.78;36.58
42705;BME280;28342;42.594;23.414;2022-08-01T09:41:11;94349.81;;;26.82;37.48
42705;BME280;28342;42.594;23.414;2022-08-01T09:43:36;94340.94;;;27.01;38.35
42705;BME280;28342;42.594;23.414;2022-08-01T09:46:19;94354.63;;;26.94;37.92
42705;BME280;28342;42.594;23.414;2022-08-01T09:49:13;94330.50;;;26.96;38.49
42705;BME280;28342;42.594;23.414;2022-08-01T09:51:39;94357.31;;;26.98;36.52
42705;BME280;28342;42.594;23.414;2022-08-01T09:54:09;94340.78;;;27.08;37.09
42705;BME280;28342;42.594;23.414;2022-08-01T09:56:40;94313.09;;;27.14;39.34
42705;BME280;28342;42.594;23.414;2022-08-01T09:59:13;94339.91;;;27.35;37.70
42705;BME280;28342;42.594;23.414;2022-08-01T10:01:48;94327.25;;;27.25;36.67
42705;BME280;28342;42.594;23.414;2022-08-01T10:04:33;94328.00;;;27.29;35.09
42705;BME280;28342;42.594;23.414;2022-08-01T10:07:06;94303.81;;;27.31;36.83
42705;BME280;28342;42.594;23.414;2022-08-01T10:09:34;94326.38;;;27.51;37.28
42705;BME280;28342;42.594;23.414;2022-08-01T10:12:20;94321.63;;;27.55;36.35
42705;BME280;28342;42.594;23.414;2022-08-01T10:14:58;94338.75;;;27.76;37.05
42705;BME280;28342;42.594;23.414;2022-08-01T10:17:25;94323.44;;;27.62;36.52
42705;BME280;28342;42.594;23.414;2022-08-01T10:19:51;94308.44;;;27.74;39.46
42705;BME280;28342;42.594;23.414;2022-08-01T10:22:22;94313.03;;;27.77;39.11
42705;BME280;28342;42.594;23.414;2022-08-01T10:25:02;94303.19;;;27.99;37.98
42705;BME280;28342;42.594;23.414;2022-08-01T10:27:45;94325.81;;;28.16;35.99
42705;BME280;28342;42.594;23.414;2022-08-01T10:30:19;94305.84;;;28.03;36.09
42705;BME280;28342;42.594;23.414;2022-08-01T10:32:45;94321.41;;;27.86;34.97
42705;BME280;28342;42.594;23.414;2022-08-01T10:35:13;94290.97;;;27.51;35.46
42705;BME280;28342;42.594;23.414;2022-08-01T10:37:43;94298.63;;;27.56;37.04
42705;BME280;28342;42.594;23.414;2022-08-01T10:40:31;94295.72;;;27.47;36.51
42705;BME280;28342;42.594;23.414;2022-08-01T10:42:58;94285.38;;;27.38;34.89
42705;BME280;28342;42.594;23.414;2022-08-01T10:45:25;94299.47;;;27.53;35.77
42705;BME280;28342;42.594;23.414;2022-08-01T10:48:16;94279.06;;;27.61;36.96
42705;BME280;28342;42.594;23.414;2022-08-01T10:50:54;94288.94;;;27.75;36.85
42705;BME280;28342;42.594;23.414;2022-08-01T10:53:27;94296.34;;;27.75;36.60
42705;BME280;28342;42.594;23.414;2022-08-01T10:56:04;94301.97;;;27.84;35.55
42705;BME280;28342;42.594;23.414;2022-08-01T10:58:34;94292.22;;;27.66;36.32
42705;BME280;28342;42.594;23.414;2022-08-01T11:03:43;94290.38;;;27.80;36.88
42705;BME280;28342;42.594;23.414;2022-08-01T11:09:20;94307.34;;;27.87;37.54
42705;BME280;28342;42.594;23.414;2022-08-01T11:15:20;94307.97;;;27.95;35.36
42705;BME280;28342;42.594;23.414;2022-08-01T11:27:35;94292.09;;;27.74;37.34
42705;BME280;28342;42.594;23.414;2022-08-01T11:30:44;94298.59;;;27.96;34.90
42705;BME280;28342;42.594;23.414;2022-08-01T11:35:09;94283.53;;;27.72;36.84
42705;BME280;28342;42.594;23.414;2022-08-01T11:41:34;94287.97;;;27.65;36.20
42705;BME280;28342;42.594;23.414;2022-08-01T11:54:29;94254.66;;;28.10;35.66
42705;BME280;28342;42.594;23.414;2022-08-01T12:05:16;94281.69;;;27.85;36.68
42705;BME280;28342;42.594;23.414;2022-08-01T12:12:11;94266.38;;;27.75;35.74
42705;BME280;28342;42.594;23.414;2022-08-01T12:22:06;94287.59;;;27.99;35.93
42705;BME280;28342;42.594;23.414;2022-08-01T12:28:47;94283.31;;;27.82;36.25
42705;BME280;28342;42.594;23.414;2022-08-01T13:37:22;94241.84;;;28.89;34.81
42705;BME280;28342;42.594;23.414;2022-08-01T15:29:01;94255.50;;;27.15;37.36
42705;BME280;28342;42.594;23.414;2022-08-01T16:02:18;94209.94;;;26.76;38.33
42705;BME280;28342;42.594;23.414;2022-08-01T16:05:39;94250.81;;;26.96;38.31
42705;BME280;28342;42.594;23.414;2022-08-01T16:12:04;94218.16;;;26.53;37.63
42705;BME280;28342;42.594;23.414;2022-08-01T16:15:10;94257.53;;;26.68;37.82
42705;BME280;28342;42.594;23.414;2022-08-01T16:24:30;94243.44;;;26.26;38.50
42705;BME280;28342;42.594;23.414;2022-08-01T16:27:22;94254.75;;;26.48;38.23
42705;BME280;28342;42.594;23.414;2022-08-01T16:30:44;94244.28;;;26.46;38.35
42705;BME280;28342;42.594;23.414;2022-08-01T16:33:21;94235.16;;;26.37;38.91
42705;BME280;28342;42.594;23.414;2022-08-01T16:36:11;94234.94;;;26.24;38.38
42705;BME280;28342;42.594;23.414;2022-08-01T16:38:55;94229.50;;;26.24;38.19
42705;BME280;28342;42.594;23.414;2022-08-01T16:41:47;94257.31;;;26.35;37.95
42705;BME280;28342;42.594;23.414;2022-08-01T16:44:47;94230.19;;;26.28;38.10
42705;BME280;28342;42.594;23.414;2022-08-01T16:54:51;94248.41;;;26.08;38.23
42705;BME280;28342;42.594;23.414;2022-08-01T16:58:28;94270.50;;;26.33;39.01
42705;BME280;28342;42.594;23.414;2022-08-01T17:11:28;94255.38;;;26.09;39.57
42705;BME280;28342;42.594;23.414;2022-08-01T17:17:32;94254.13;;;25.86;40.66
42705;BME280;28342;42.594;23.414;2022-08-01T17:23:34;94254.78;;;25.67;41.44
42705;BME280;28342;42.594;23.414;2022-08-01T17:26:36;94282.56;;;25.82;41.47
42705;BME280;28342;42.594;23.414;2022-08-01T17:50:20;94274.00;;;24.85;43.72
42705;BME280;28342;42.594;23.414;2022-08-01T17:53:21;94282.09;;;24.88;43.96
42705;BME280;28342;42.594;23.414;2022-08-01T18:00:23;94321.28;;;24.84;44.75
42705;BME280;28342;42.594;23.414;2022-08-01T18:03:30;94316.81;;;24.63;44.52
42705;BME280;28342;42.594;23.414;2022-08-01T18:06:35;94334.72;;;24.50;46.54
42705;BME280;28342;42.594;23.414;2022-08-01T18:09:45;94342.50;;;24.51;45.00
42705;BME280;28342;42.594;23.414;2022-08-01T18:13:31;94342.91;;;24.46;42.67
42705;BME280;28342;42.594;23.414;2022-08-01T18:40:00;94366.22;;;23.52;46.42
42705;BME280;28342;42.594;23.414;2022-08-01T18:52:15;94389.50;;;23.25;47.42
42705;BME280;28342;42.594;23.414;2022-08-01T18:54:43;94405.00;;;23.14;48.61
42705;BME280;28342;42.594;23.414;2022-08-01T18:57:09;94392.66;;;22.99;48.04
42705;BME280;28342;42.594;23.414;2022-08-01T18:59:35;94386.47;;;22.91;48.40
42705;BME280;28342;42.594;23.414;2022-08-01T19:02:36;94392.63;;;22.77;48.29
42705;BME280;28342;42.594;23.414;2022-08-01T19:05:54;94427.41;;;22.96;49.28
42705;BME280;28342;42.594;23.414;2022-08-01T19:09:29;94426.66;;;22.92;50.11
42705;BME280;28342;42.594;23.414;2022-08-01T19:13:00;94406.53;;;22.54;49.46
42705;BME280;28342;42.594;23.414;2022-08-01T19:16:21;94431.25;;;22.53;50.27
42705;BME280;28342;42.594;23.414;2022-08-01T19:22:39;94444.28;;;22.19;51.69
42705;BME280;28342;42.594;23.414;2022-08-01T19:26:09;94435.78;;;22.06;52.17
42705;BME280;28342;42.594;23.414;2022-08-01T19:29:31;94419.00;;;21.61;53.56
42705;BME280;28342;42.594;23.414;2022-08-01T19:36:13;94452.56;;;21.60;54.21
42705;BME280;28342;42.594;23.414;2022-08-01T19:39:28;94443.97;;;21.44;55.04
42705;BME280;28342;42.594;23.414;2022-08-01T19:43:06;94449.28;;;21.30;55.78